Time;durP1;ratioP1;P1;durP2;ratioP2;P2;SDS_P1;SDS_P2;PMS_P1;PMS_P2;Temp;Humidity;BMP_temperature;BMP_pressure;BME280_temperature;BME280_humidity;BME280_pressure;Samples;Min_cycle;Max_cycle;Signal;HPM_P1;HPM_P2
2022/02/27 00:01:42;;;;;;;1.55;1.10;;;;;;;;;;5041820;28;20012;-58
2022/02/27 00:04:07;;;;;;;2.25;1.00;;;;;;;;;;5044508;28;20083;-58
2022/02/27 00:06:32;;;;;;;4.47;1.90;;;;;;;;;;5055411;28;20094;-58
2022/02/27 00:08:58;;;;;;;2.57;0.77;;;;;;;;;;5053101;28;20115;-58
2022/02/27 00:11:23;;;;;;;2.33;1.30;;;;;;;;;;5052340;28;20278;-58
2022/02/27 00:13:48;;;;;;;4.38;1.02;;;;;;;;;;5048834;28;20096;-58
2022/02/27 00:16:14;;;;;;;1.90;0.90;;;;;;;;;;5047317;28;20033;-57
2022/02/27 00:18:39;;;;;;;2.45;0.90;;;;;;;;;;5051800;28;20063;-58
2022/02/27 00:21:04;;;;;;;3.55;0.88;;;;;;;;;;5052815;28;20485;-57
2022/02/27 00:23:29;;;;;;;3.20;1.00;;;;;;;;;;5043915;28;20017;-58
2022/02/27 00:25:55;;;;;;;3.22;1.00;;;;;;;;;;5034009;28;20094;-58
2022/02/27 00:28:20;;;;;;;3.60;1.08;;;;;;;;;;5067113;28;20075;-58
2022/02/27 00:30:45;;;;;;;3.17;1.60;;;;;;;;;;5056857;28;20026;-57
2022/02/27 00:33:10;;;;;;;3.33;1.45;;;;;;;;;;5027860;28;20098;-57
2022/02/27 00:35:36;;;;;;;2.35;0.93;;;;;;;;;;5038304;28;20124;-58
2022/02/27 00:38:01;;;;;;;2.20;1.08;;;;;;;;;;5033895;28;20497;-57
2022/02/27 00:40:26;;;;;;;3.13;1.20;;;;;;;;;;5038882;28;20013;-58
2022/02/27 00:42:51;;;;;;;2.90;0.88;;;;;;;;;;5048139;28;20063;-58
2022/02/27 00:45:16;;;;;;;1.70;0.77;;;;;;;;;;5055651;28;20029;-58
2022/02/27 00:47:42;;;;;;;2.87;0.77;;;;;;;;;;5033382;28;20025;-57
2022/02/27 00:50:08;;;;;;;2.05;1.05;;;;;;;;;;5014679;28;20330;-57
2022/02/27 00:52:33;;;;;;;2.25;0.93;;;;;;;;;;5032793;28;20033;-57
2022/02/27 00:54:58;;;;;;;2.95;1.60;;;;;;;;;;5044299;28;20533;-58
2022/02/27 00:57:24;;;;;;;2.38;1.25;;;;;;;;;;5035611;28;20028;-58
2022/02/27 00:59:49;;;;;;;1.80;1.00;;;;;;;;;;5060739;28;20477;-58
2022/02/27 01:02:15;;;;;;;2.08;0.82;;;;;;;;;;5052645;28;20025;-58
2022/02/27 01:04:40;;;;;;;2.40;0.52;;;;;;;;;;5061504;28;20034;-58
2022/02/27 01:07:06;;;;;;;2.83;1.35;;;;;;;;;;5072630;28;20464;-58
2022/02/27 01:09:31;;;;;;;2.40;0.90;;;;;;;;;;5067354;28;20021;-58
2022/02/27 01:11:56;;;;;;;2.08;0.80;;;;;;;;;;5041464;28;20549;-53
2022/02/27 01:14:21;;;;;;;2.95;1.05;;;;;;;;;;5044789;28;20020;-58
2022/02/27 01:16:46;;;;;;;3.75;1.35;;;;;;;;;;5072307;28;20056;-56
2022/02/27 01:19:12;;;;;;;1.00;0.60;;;;;;;;;;5070667;28;20031;-58
2022/02/27 01:21:38;;;;;;;1.48;1.10;;;;;;;;;;5068403;28;20037;-58
2022/02/27 01:24:04;;;;;;;2.10;1.10;;;;;;;;;;5055121;28;20008;-58
2022/02/27 01:26:29;;;;;;;4.28;1.67;;;;;;;;;;5033195;28;20025;-58
2022/02/27 01:28:54;;;;;;;2.63;1.20;;;;;;;;;;5041807;28;20457;-59
2022/02/27 01:31:20;;;;;;;1.88;0.93;;;;;;;;;;5051253;28;20076;-58
2022/02/27 01:33:45;;;;;;;1.73;0.80;;;;;;;;;;5036078;28;20021;-58
2022/02/27 01:36:10;;;;;;;2.20;1.67;;;;;;;;;;5052920;28;20492;-59
2022/02/27 01:38:35;;;;;;;2.35;0.90;;;;;;;;;;5053555;28;20068;-58
2022/02/27 01:41:01;;;;;;;2.00;1.20;;;;;;;;;;5044330;28;20116;-58
2022/02/27 01:43:26;;;;;;;1.95;0.80;;;;;;;;;;5071703;28;20388;-58
2022/02/27 01:45:51;;;;;;;1.52;0.73;;;;;;;;;;5055717;28;20063;-58
2022/02/27 01:48:16;;;;;;;2.50;1.30;;;;;;;;;;5034021;28;20043;-55
2022/02/27 01:50:41;;;;;;;2.78;1.00;;;;;;;;;;5059960;28;20279;-58
2022/02/27 01:53:07;;;;;;;1.35;0.68;;;;;;;;;;5051835;28;20025;-57
2022/02/27 01:55:32;;;;;;;1.55;1.08;;;;;;;;;;5045249;28;20078;-58
2022/02/27 01:57:57;;;;;;;2.88;1.02;;;;;;;;;;5043503;28;20021;-57
2022/02/27 02:00:23;;;;;;;1.70;0.80;;;;;;;;;;5046881;28;20152;-59
2022/02/27 02:02:48;;;;;;;1.98;1.17;;;;;;;;;;5050756;28;20045;-58
2022/02/27 02:05:14;;;;;;;1.85;0.93;;;;;;;;;;5052859;28;20013;-58
2022/02/27 02:07:40;;;;;;;2.03;1.10;;;;;;;;;;5051639;28;20100;-58
2022/02/27 02:10:05;;;;;;;2.13;0.75;;;;;;;;;;5048871;28;20025;-58
2022/02/27 02:12:31;;;;;;;2.53;0.77;;;;;;;;;;5058406;28;20082;-58
2022/02/27 02:14:56;;;;;;;2.17;1.17;;;;;;;;;;5059000;28;20033;-58
2022/02/27 02:17:21;;;;;;;2.15;1.02;;;;;;;;;;5057029;28;20048;-58
2022/02/27 02:19:50;;;;;;;1.60;1.00;;;;;;;;;;5050808;28;20104;-54
2022/02/27 02:22:16;;;;;;;1.95;0.80;;;;;;;;;;5063289;28;20016;-58
2022/02/27 02:24:41;;;;;;;3.03;0.80;;;;;;;;;;5038446;28;20036;-58
2022/02/27 02:27:07;;;;;;;2.65;0.77;;;;;;;;;;5059769;28;20032;-58
2022/02/27 02:29:32;;;;;;;1.40;0.70;;;;;;;;;;5032180;28;20048;-58
2022/02/27 02:31:57;;;;;;;1.23;0.50;;;;;;;;;;5035144;28;20036;-57
2022/02/27 02:34:23;;;;;;;2.35;0.93;;;;;;;;;;5058234;28;20067;-58
2022/02/27 02:36:49;;;;;;;2.30;0.60;;;;;;;;;;5064158;28;20430;-58
2022/02/27 02:39:16;;;;;;;3.00;1.30;;;;;;;;;;5051267;28;20108;-58
2022/02/27 02:41:41;;;;;;;2.28;0.70;;;;;;;;;;5027846;28;20024;-58
2022/02/27 02:44:06;;;;;;;3.15;1.10;;;;;;;;;;5070098;28;20013;-58
2022/02/27 02:46:35;;;;;;;2.67;0.68;;;;;;;;;;5067560;28;20083;-58
2022/02/27 02:49:00;;;;;;;2.40;1.20;;;;;;;;;;5064919;28;20398;-58
2022/02/27 02:51:26;;;;;;;1.27;0.80;;;;;;;;;;5056338;28;20032;-57
2022/02/27 02:53:51;;;;;;;2.88;1.23;;;;;;;;;;5046066;28;20143;-57
2022/02/27 02:56:16;;;;;;;3.65;1.17;;;;;;;;;;5052061;28;20334;-58
2022/02/27 02:58:42;;;;;;;1.30;0.82;;;;;;;;;;5058391;28;20017;-58
2022/02/27 03:01:11;;;;;;;2.13;1.27;;;;;;;;;;5050126;28;20088;-58
2022/02/27 03:03:37;;;;;;;1.30;0.60;;;;;;;;;;5050538;28;20052;-56
2022/02/27 03:06:03;;;;;;;2.58;1.20;;;;;;;;;;5047531;28;20574;-58
2022/02/27 03:08:28;;;;;;;1.58;0.80;;;;;;;;;;5060700;28;20099;-57
2022/02/27 03:10:53;;;;;;;2.00;0.98;;;;;;;;;;5059432;28;20477;-58
2022/02/27 03:13:18;;;;;;;2.03;1.17;;;;;;;;;;5054784;28;20116;-58
2022/02/27 03:15:44;;;;;;;2.53;1.13;;;;;;;;;;5059893;28;20291;-58
2022/02/27 03:18:09;;;;;;;1.10;0.60;;;;;;;;;;5085610;28;20021;-58
2022/02/27 03:20:34;;;;;;;3.60;1.55;;;;;;;;;;5063350;28;20025;-58
2022/02/27 03:22:59;;;;;;;2.13;1.27;;;;;;;;;;5049979;28;20021;-58
2022/02/27 03:25:26;;;;;;;2.13;0.93;;;;;;;;;;5042944;28;20099;-58
2022/02/27 03:27:52;;;;;;;2.25;1.30;;;;;;;;;;5061396;28;20020;-58
2022/02/27 03:30:17;;;;;;;1.80;0.93;;;;;;;;;;5065921;28;20082;-58
2022/02/27 03:32:46;;;;;;;2.40;0.60;;;;;;;;;;5041663;28;20383;-58
2022/02/27 03:35:14;;;;;;;2.50;1.00;;;;;;;;;;5056634;28;20472;-58
2022/02/27 03:37:40;;;;;;;2.53;1.60;;;;;;;;;;5072750;28;20416;-58
2022/02/27 03:40:05;;;;;;;2.00;1.05;;;;;;;;;;5062489;28;20075;-58
2022/02/27 03:42:30;;;;;;;3.50;1.83;;;;;;;;;;5050584;28;20040;-58
2022/02/27 03:44:56;;;;;;;2.57;0.97;;;;;;;;;;5058781;28;20067;-58
2022/02/27 03:47:21;;;;;;;2.10;0.93;;;;;;;;;;5067395;28;20291;-58
2022/02/27 03:49:46;;;;;;;3.35;1.08;;;;;;;;;;5035535;28;20036;-58
2022/02/27 03:52:11;;;;;;;2.10;0.80;;;;;;;;;;5053696;28;20017;-59
2022/02/27 03:54:37;;;;;;;2.33;0.80;;;;;;;;;;5018206;28;20029;-58
2022/02/27 03:57:02;;;;;;;1.70;0.95;;;;;;;;;;5033630;28;20028;-58
2022/02/27 03:59:27;;;;;;;2.00;1.17;;;;;;;;;;5053890;28;20107;-58
2022/02/27 04:01:52;;;;;;;1.30;1.02;;;;;;;;;;5059518;28;20056;-58
2022/02/27 04:04:18;;;;;;;1.52;0.70;;;;;;;;;;5053179;28;20132;-58
2022/02/27 04:06:43;;;;;;;1.58;0.80;;;;;;;;;;5072291;28;20087;-58
2022/02/27 04:09:08;;;;;;;2.03;1.08;;;;;;;;;;5061985;28;20029;-58
2022/02/27 04:11:33;;;;;;;1.30;0.77;;;;;;;;;;5053712;28;20020;-56
2022/02/27 04:13:59;;;;;;;3.20;1.33;;;;;;;;;;5053750;28;20037;-58
2022/02/27 04:16:24;;;;;;;1.92;0.90;;;;;;;;;;5066204;28;20033;-57
2022/02/27 04:18:49;;;;;;;1.05;0.68;;;;;;;;;;5064807;28;20040;-57
2022/02/27 04:21:14;;;;;;;2.13;0.80;;;;;;;;;;5054293;28;20478;-58
2022/02/27 04:23:39;;;;;;;1.20;0.90;;;;;;;;;;5043479;28;20488;-58
2022/02/27 04:26:05;;;;;;;2.67;0.90;;;;;;;;;;5049765;28;20052;-57
2022/02/27 04:28:30;;;;;;;1.65;0.82;;;;;;;;;;5048993;28;20488;-58
2022/02/27 04:30:55;;;;;;;2.05;1.02;;;;;;;;;;5070796;28;20396;-57
2022/02/27 04:33:20;;;;;;;2.13;0.90;;;;;;;;;;5048687;28;20481;-58
2022/02/27 04:35:46;;;;;;;1.48;0.93;;;;;;;;;;5052950;28;20440;-58
2022/02/27 04:38:11;;;;;;;1.85;0.77;;;;;;;;;;5053519;28;20106;-58
2022/02/27 04:40:36;;;;;;;1.05;0.95;;;;;;;;;;5063488;28;20017;-58
2022/02/27 04:43:02;;;;;;;2.25;1.08;;;;;;;;;;5057045;28;20029;-58
2022/02/27 04:45:27;;;;;;;1.73;0.85;;;;;;;;;;5047495;28;20032;-58
2022/02/27 04:47:52;;;;;;;2.17;0.75;;;;;;;;;;5058765;28;20094;-58
2022/02/27 04:50:18;;;;;;;2.75;1.30;;;;;;;;;;5071045;28;20098;-58
2022/02/27 04:52:43;;;;;;;1.60;0.90;;;;;;;;;;5056797;28;20148;-58
2022/02/27 04:55:08;;;;;;;1.80;1.00;;;;;;;;;;5040868;28;20079;-58
2022/02/27 04:57:33;;;;;;;3.38;1.20;;;;;;;;;;5049438;28;20112;-55
2022/02/27 05:00:00;;;;;;;1.42;1.10;;;;;;;;;;5039818;28;20021;-58
2022/02/27 05:02:25;;;;;;;2.00;0.75;;;;;;;;;;5053565;28;20056;-58
2022/02/27 05:04:50;;;;;;;0.77;0.73;;;;;;;;;;5052184;28;20469;-58
2022/02/27 05:07:16;;;;;;;3.25;0.95;;;;;;;;;;5062460;28;20024;-58
2022/02/27 05:09:41;;;;;;;1.38;0.98;;;;;;;;;;5072632;28;20535;-59
2022/02/27 05:12:06;;;;;;;1.50;0.73;;;;;;;;;;5051939;28;20036;-58
2022/02/27 05:14:31;;;;;;;1.25;0.68;;;;;;;;;;5057672;28;20101;-58
2022/02/27 05:16:57;;;;;;;1.73;1.13;;;;;;;;;;5063566;28;20393;-58
2022/02/27 05:19:22;;;;;;;1.85;0.98;;;;;;;;;;5033782;28;20025;-58
2022/02/27 05:21:47;;;;;;;2.42;1.00;;;;;;;;;;5052767;28;20024;-58
2022/02/27 05:24:12;;;;;;;1.73;0.90;;;;;;;;;;5043797;28;20032;-58
2022/02/27 05:26:37;;;;;;;1.42;0.60;;;;;;;;;;5037593;28;20043;-58
2022/02/27 05:29:04;;;;;;;1.27;0.73;;;;;;;;;;5055079;28;20067;-58
2022/02/27 05:31:29;;;;;;;1.95;1.05;;;;;;;;;;5034288;28;20021;-58
2022/02/27 05:33:54;;;;;;;1.80;0.88;;;;;;;;;;5054019;28;20143;-58
2022/02/27 05:36:20;;;;;;;3.10;0.90;;;;;;;;;;5033933;28;20482;-58
2022/02/27 05:38:45;;;;;;;1.33;1.10;;;;;;;;;;5051941;28;20043;-58
2022/02/27 05:41:10;;;;;;;2.88;1.15;;;;;;;;;;5040365;28;20438;-58
2022/02/27 05:43:35;;;;;;;3.65;1.02;;;;;;;;;;5056183;28;20124;-58
2022/02/27 05:46:01;;;;;;;1.57;0.80;;;;;;;;;;5061616;28;20086;-58
2022/02/27 05:48:26;;;;;;;2.13;0.88;;;;;;;;;;5070879;28;20278;-58
2022/02/27 05:50:51;;;;;;;1.25;0.80;;;;;;;;;;5068820;28;20032;-58
2022/02/27 05:53:17;;;;;;;1.02;0.70;;;;;;;;;;5048347;28;20533;-58
2022/02/27 05:55:42;;;;;;;1.77;1.13;;;;;;;;;;5049617;28;20388;-58
2022/02/27 05:58:07;;;;;;;1.38;0.68;;;;;;;;;;5030712;28;20048;-58
2022/02/27 06:00:32;;;;;;;1.70;0.73;;;;;;;;;;5034934;28;20017;-58
2022/02/27 06:02:58;;;;;;;2.90;1.02;;;;;;;;;;5056125;28;20057;-58
2022/02/27 06:05:24;;;;;;;1.10;0.60;;;;;;;;;;5056195;28;20029;-56
2022/02/27 06:07:49;;;;;;;1.85;0.82;;;;;;;;;;5072284;28;20119;-58
2022/02/27 06:10:14;;;;;;;1.05;0.80;;;;;;;;;;5049387;28;20025;-57
2022/02/27 06:12:46;;;;;;;1.92;1.08;;;;;;;;;;5060747;28;20037;-57
2022/02/27 06:15:11;;;;;;;2.60;1.40;;;;;;;;;;5044715;28;20032;-58
2022/02/27 06:17:36;;;;;;;2.60;0.68;;;;;;;;;;5051097;28;20021;-58
2022/02/27 06:20:02;;;;;;;2.57;1.30;;;;;;;;;;5059010;28;20016;-58
2022/02/27 06:22:28;;;;;;;2.08;0.80;;;;;;;;;;5055130;28;20325;-57
2022/02/27 06:24:53;;;;;;;1.52;0.65;;;;;;;;;;5054306;28;20114;-58
2022/02/27 06:27:18;;;;;;;2.03;1.27;;;;;;;;;;5031869;28;20029;-58
2022/02/27 06:29:43;;;;;;;1.63;0.80;;;;;;;;;;5037347;28;20363;-53
2022/02/27 06:32:08;;;;;;;2.40;1.08;;;;;;;;;;5048345;28;20029;-58
2022/02/27 06:34:34;;;;;;;3.28;1.40;;;;;;;;;;5051369;28;20028;-57
2022/02/27 06:36:59;;;;;;;2.88;0.90;;;;;;;;;;5059985;28;20055;-58
2022/02/27 06:39:24;;;;;;;2.13;1.08;;;;;;;;;;5069492;28;20013;-57
2022/02/27 06:41:49;;;;;;;1.25;0.70;;;;;;;;;;5045700;28;20033;-58
2022/02/27 06:44:14;;;;;;;1.42;1.00;;;;;;;;;;5062258;28;20056;-57
2022/02/27 06:46:40;;;;;;;2.90;1.08;;;;;;;;;;5067680;28;20028;-57
2022/02/27 06:49:05;;;;;;;2.92;1.35;;;;;;;;;;5074834;28;20029;-57
2022/02/27 06:51:30;;;;;;;1.40;0.82;;;;;;;;;;5068159;28;20390;-57
2022/02/27 06:53:55;;;;;;;2.53;1.10;;;;;;;;;;5043739;28;20101;-57
2022/02/27 06:56:21;;;;;;;1.27;0.80;;;;;;;;;;5040508;28;20167;-57
2022/02/27 06:58:46;;;;;;;4.40;2.33;;;;;;;;;;5044372;28;20056;-57
2022/02/27 07:01:11;;;;;;;4.00;2.13;;;;;;;;;;5045115;28;20041;-57
2022/02/27 07:03:36;;;;;;;0.85;0.80;;;;;;;;;;5038671;28;20291;-56
2022/02/27 07:06:01;;;;;;;1.97;1.00;;;;;;;;;;5058148;28;20036;-58
2022/02/27 07:08:27;;;;;;;1.13;0.50;;;;;;;;;;5064328;28;20650;-57
2022/02/27 07:10:54;;;;;;;2.28;0.43;;;;;;;;;;5051201;28;20036;-58
2022/02/27 07:13:19;;;;;;;1.35;0.50;;;;;;;;;;5052573;28;20104;-58
2022/02/27 07:15:44;;;;;;;1.95;0.73;;;;;;;;;;5064832;28;20107;-57
2022/02/27 07:18:11;;;;;;;2.85;1.05;;;;;;;;;;5067287;28;20020;-58
2022/02/27 07:20:36;;;;;;;2.50;1.10;;;;;;;;;;5049127;28;20019;-58
2022/02/27 07:23:01;;;;;;;1.52;1.23;;;;;;;;;;5042441;28;20033;-58
2022/02/27 07:25:26;;;;;;;2.42;0.90;;;;;;;;;;5048732;28;20022;-56
2022/02/27 07:27:52;;;;;;;1.48;0.65;;;;;;;;;;5041326;28;20035;-58
2022/02/27 07:30:17;;;;;;;2.72;1.55;;;;;;;;;;5055192;28;20104;-57
2022/02/27 07:32:42;;;;;;;2.08;1.08;;;;;;;;;;5035782;28;20021;-59
2022/02/27 07:35:07;;;;;;;1.70;1.30;;;;;;;;;;5048792;28;20074;-57
2022/02/27 07:37:35;;;;;;;3.88;1.13;;;;;;;;;;5054392;28;20020;-58
2022/02/27 07:40:01;;;;;;;2.30;1.27;;;;;;;;;;5029978;28;20036;-58
2022/02/27 07:42:26;;;;;;;2.83;1.27;;;;;;;;;;5045054;28;20022;-54
2022/02/27 07:44:55;;;;;;;1.38;1.02;;;;;;;;;;5040764;28;20461;-54
2022/02/27 07:47:20;;;;;;;2.50;1.23;;;;;;;;;;5050741;28;20083;-58
2022/02/27 07:49:45;;;;;;;1.55;1.08;;;;;;;;;;5043095;28;20037;-58
2022/02/27 07:52:10;;;;;;;2.05;0.90;;;;;;;;;;5047066;28;20025;-58
2022/02/27 07:54:36;;;;;;;3.50;1.23;;;;;;;;;;5039351;28;20033;-56
2022/02/27 07:57:01;;;;;;;1.63;0.80;;;;;;;;;;5028996;28;20127;-55
2022/02/27 07:59:26;;;;;;;1.40;0.95;;;;;;;;;;5040148;28;20787;-57
2022/02/27 08:01:51;;;;;;;1.77;0.95;;;;;;;;;;5043086;28;20063;-57
2022/02/27 08:04:16;;;;;;;2.10;0.98;;;;;;;;;;5043532;28;20079;-58
2022/02/27 08:06:42;;;;;;;1.67;0.80;;;;;;;;;;5041903;28;20033;-58
2022/02/27 08:09:07;;;;;;;0.93;0.70;;;;;;;;;;5037157;28;20028;-56
2022/02/27 08:11:32;;;;;;;1.05;0.60;;;;;;;;;;5041237;28;20063;-58
2022/02/27 08:13:58;;;;;;;2.15;1.10;;;;;;;;;;5041090;28;20104;-57
2022/02/27 08:16:23;;;;;;;1.17;0.80;;;;;;;;;;5042140;28;20029;-58
2022/02/27 08:18:48;;;;;;;2.38;1.45;;;;;;;;;;5044064;28;20025;-58
2022/02/27 08:21:14;;;;;;;2.88;1.23;;;;;;;;;;5041540;28;20014;-58
2022/02/27 08:23:39;;;;;;;1.80;1.08;;;;;;;;;;5035625;28;20381;-58
2022/02/27 08:26:04;;;;;;;1.60;1.08;;;;;;;;;;5039651;28;20414;-57
2022/02/27 08:28:30;;;;;;;3.65;1.33;;;;;;;;;;5050915;28;20021;-56
2022/02/27 08:30:56;;;;;;;1.50;1.10;;;;;;;;;;5052204;28;20058;-56
2022/02/27 08:33:22;;;;;;;3.47;1.77;;;;;;;;;;5047589;28;20061;-57
2022/02/27 08:35:47;;;;;;;1.38;0.77;;;;;;;;;;5042552;28;20033;-57
2022/02/27 08:38:12;;;;;;;1.83;1.25;;;;;;;;;;5047131;28;20096;-57
2022/02/27 08:40:38;;;;;;;2.72;1.65;;;;;;;;;;5046794;28;20504;-59
2022/02/27 08:43:03;;;;;;;1.73;0.60;;;;;;;;;;5046063;28;20112;-56
2022/02/27 08:45:28;;;;;;;0.98;0.57;;;;;;;;;;5043041;28;20674;-56
2022/02/27 08:47:54;;;;;;;0.93;0.68;;;;;;;;;;5043218;28;20022;-56
2022/02/27 08:50:20;;;;;;;1.38;0.80;;;;;;;;;;5041594;28;20044;-57
2022/02/27 08:52:45;;;;;;;1.95;0.68;;;;;;;;;;5040269;28;20079;-53
2022/02/27 08:55:11;;;;;;;1.67;1.00;;;;;;;;;;5039192;28;20113;-56
2022/02/27 08:57:37;;;;;;;1.67;0.63;;;;;;;;;;5041485;28;20029;-55
2022/02/27 09:00:06;;;;;;;1.52;1.00;;;;;;;;;;5045440;28;20052;-57
2022/02/27 09:02:31;;;;;;;1.42;1.00;;;;;;;;;;5046100;28;20036;-56
2022/02/27 09:04:57;;;;;;;1.63;0.90;;;;;;;;;;5043447;28;20033;-57
2022/02/27 09:07:22;;;;;;;1.30;0.50;;;;;;;;;;5056268;28;20024;-56
2022/02/27 09:09:47;;;;;;;1.13;0.60;;;;;;;;;;5046751;28;20655;-54
2022/02/27 09:12:13;;;;;;;0.90;0.60;;;;;;;;;;5052982;28;20310;-56
2022/02/27 09:14:38;;;;;;;2.13;0.57;;;;;;;;;;5055458;28;20413;-57
2022/02/27 09:17:04;;;;;;;0.90;0.68;;;;;;;;;;5051912;28;20059;-56
2022/02/27 09:19:29;;;;;;;1.27;0.70;;;;;;;;;;5061395;28;20029;-57
2022/02/27 09:21:54;;;;;;;1.50;0.47;;;;;;;;;;5031353;28;20465;-58
2022/02/27 09:24:19;;;;;;;0.68;0.65;;;;;;;;;;5045670;28;20021;-57
2022/02/27 09:26:45;;;;;;;1.33;0.68;;;;;;;;;;5051216;28;20035;-58
2022/02/27 09:29:13;;;;;;;0.45;0.45;;;;;;;;;;5056433;28;20028;-57
2022/02/27 09:31:38;;;;;;;1.13;0.43;;;;;;;;;;5054017;28;20025;-53
2022/02/27 09:34:04;;;;;;;1.08;0.73;;;;;;;;;;5050021;28;20032;-57
2022/02/27 09:36:29;;;;;;;1.05;0.70;;;;;;;;;;5032333;28;20116;-57
2022/02/27 09:38:55;;;;;;;2.15;1.10;;;;;;;;;;5047904;28;20040;-58
2022/02/27 09:41:21;;;;;;;1.27;0.95;;;;;;;;;;5039149;28;20358;-57
2022/02/27 09:43:51;;;;;;;1.88;0.98;;;;;;;;;;5048679;28;20036;-58
2022/02/27 09:46:17;;;;;;;1.08;0.88;;;;;;;;;;5051626;28;20025;-56
2022/02/27 09:48:43;;;;;;;1.42;0.85;;;;;;;;;;5034086;28;20071;-58
2022/02/27 09:51:09;;;;;;;0.70;0.30;;;;;;;;;;5047890;28;20419;-58
2022/02/27 09:53:34;;;;;;;2.03;0.75;;;;;;;;;;5042348;28;20029;-58
2022/02/27 09:55:59;;;;;;;0.70;0.43;;;;;;;;;;5045253;28;20029;-58
2022/02/27 09:58:27;;;;;;;1.07;0.50;;;;;;;;;;5047414;28;20033;-58
2022/02/27 10:00:52;;;;;;;0.80;0.43;;;;;;;;;;5055000;28;20278;-58
2022/02/27 10:03:24;;;;;;;0.30;0.30;;;;;;;;;;5047119;28;20527;-58
2022/02/27 10:05:49;;;;;;;0.50;0.30;;;;;;;;;;5041039;28;20132;-56
2022/02/27 10:08:15;;;;;;;0.63;0.43;;;;;;;;;;5049342;28;20108;-58
2022/02/27 10:10:54;;;;;;;0.80;0.50;;;;;;;;;;5049608;28;20425;-58
2022/02/27 10:13:30;;;;;;;0.80;0.30;;;;;;;;;;5049695;28;20017;-57
2022/02/27 10:16:01;;;;;;;0.40;0.30;;;;;;;;;;5051825;28;20106;-58
2022/02/27 10:18:36;;;;;;;0.52;0.22;;;;;;;;;;5047568;28;20733;-58
2022/02/27 10:21:01;;;;;;;1.60;0.52;;;;;;;;;;5051896;28;20047;-58
2022/02/27 10:23:26;;;;;;;0.80;0.40;;;;;;;;;;5048543;28;20559;-58
2022/02/27 10:25:51;;;;;;;1.17;0.60;;;;;;;;;;5052132;28;20028;-58
2022/02/27 10:28:19;;;;;;;1.00;0.52;;;;;;;;;;5045992;28;20318;-58
2022/02/27 10:30:44;;;;;;;0.73;0.43;;;;;;;;;;5053138;28;20029;-58
2022/02/27 10:33:13;;;;;;;1.02;0.75;;;;;;;;;;5049253;28;20048;-58
2022/02/27 10:35:48;;;;;;;2.15;0.68;;;;;;;;;;5051045;28;20023;-58
2022/02/27 10:38:43;;;;;;;1.58;0.70;;;;;;;;;;5053709;28;20014;-58
2022/02/27 10:41:10;;;;;;;0.55;0.40;;;;;;;;;;5041192;28;20021;-57
2022/02/27 10:43:40;;;;;;;0.73;0.30;;;;;;;;;;5045226;28;20104;-58
2022/02/27 10:46:05;;;;;;;0.30;0.20;;;;;;;;;;5049610;28;21006;-58
2022/02/27 10:48:31;;;;;;;0.88;0.50;;;;;;;;;;5054177;28;20075;-58
2022/02/27 10:51:25;;;;;;;1.48;0.65;;;;;;;;;;5045356;28;20120;-57
2022/02/27 10:53:51;;;;;;;0.77;0.32;;;;;;;;;;5034218;28;20062;-57
2022/02/27 10:56:17;;;;;;;0.40;0.32;;;;;;;;;;5054227;28;20071;-58
2022/02/27 10:58:46;;;;;;;0.82;0.40;;;;;;;;;;5047937;28;20436;-57
2022/02/27 11:01:19;;;;;;;0.95;0.40;;;;;;;;;;5037308;28;20115;-57
2022/02/27 11:03:46;;;;;;;1.08;0.40;;;;;;;;;;5053907;28;20497;-57
2022/02/27 11:06:11;;;;;;;1.17;0.35;;;;;;;;;;5069228;28;20048;-57
2022/02/27 11:08:36;;;;;;;0.80;0.32;;;;;;;;;;5055500;28;20477;-58
2022/02/27 11:11:02;;;;;;;0.60;0.30;;;;;;;;;;5064964;28;20472;-58
2022/02/27 11:13:27;;;;;;;0.93;0.40;;;;;;;;;;5059385;28;20025;-58
2022/02/27 11:15:53;;;;;;;1.00;0.60;;;;;;;;;;5062856;28;20036;-58
2022/02/27 11:18:19;;;;;;;1.08;0.65;;;;;;;;;;5059160;28;20112;-55
2022/02/27 11:20:44;;;;;;;0.45;0.45;;;;;;;;;;5053762;28;20021;-59
2022/02/27 11:23:10;;;;;;;0.50;0.40;;;;;;;;;;5061326;28;20021;-58
2022/02/27 11:25:35;;;;;;;0.60;0.40;;;;;;;;;;5060458;28;20028;-57
2022/02/27 11:28:05;;;;;;;0.50;0.30;;;;;;;;;;5053315;28;20025;-57
2022/02/27 11:30:34;;;;;;;0.93;0.43;;;;;;;;;;5065613;28;20012;-56
2022/02/27 11:33:05;;;;;;;0.50;0.50;;;;;;;;;;5040185;28;20025;-56
2022/02/27 11:35:34;;;;;;;0.50;0.30;;;;;;;;;;5048282;28;20021;-57
2022/02/27 11:37:59;;;;;;;0.50;0.40;;;;;;;;;;5062951;28;20027;-57
2022/02/27 11:40:33;;;;;;;0.45;0.40;;;;;;;;;;5049505;28;20017;-57
2022/02/27 11:43:00;;;;;;;1.02;0.55;;;;;;;;;;5034160;28;20034;-56
2022/02/27 11:45:34;;;;;;;1.33;0.30;;;;;;;;;;5043544;28;20105;-58
2022/02/27 11:48:00;;;;;;;0.50;0.40;;;;;;;;;;5058211;28;20044;-57
2022/02/27 11:50:29;;;;;;;1.45;0.50;;;;;;;;;;5068334;28;20022;-58
2022/02/27 11:52:54;;;;;;;1.08;0.60;;;;;;;;;;5033254;28;20030;-57
2022/02/27 11:55:40;;;;;;;0.40;0.30;;;;;;;;;;5046546;28;20014;-57
2022/02/27 11:58:05;;;;;;;;;;;;;;;;;;5041920;28;20413;-56
2022/02/27 12:00:37;;;;;;;0.40;0.30;;;;;;;;;;5055886;28;19908;-57
2022/02/27 12:03:22;;;;;;;0.30;0.20;;;;;;;;;;5053097;28;20041;-57
2022/02/27 12:05:47;;;;;;;0.32;0.28;;;;;;;;;;5056621;28;20128;-58
2022/02/27 12:08:14;;;;;;;0.40;0.30;;;;;;;;;;5056366;28;20119;-58
2022/02/27 12:10:40;;;;;;;0.47;0.45;;;;;;;;;;5054241;28;20029;-58
2022/02/27 12:13:25;;;;;;;0.30;0.30;;;;;;;;;;5054901;28;20032;-58
2022/02/27 12:16:04;;;;;;;0.70;0.20;;;;;;;;;;5073539;28;20017;-58
2022/02/27 12:18:29;;;;;;;0.35;0.30;;;;;;;;;;5056312;28;20035;-57
2022/02/27 12:20:57;;;;;;;0.30;0.20;;;;;;;;;;5053163;28;20021;-57
2022/02/27 12:23:28;;;;;;;0.20;0.20;;;;;;;;;;5059263;28;20024;-58
2022/02/27 12:25:54;;;;;;;0.57;0.20;;;;;;;;;;5041062;28;20109;-58
2022/02/27 12:28:37;;;;;;;0.98;0.30;;;;;;;;;;5052918;28;20075;-56
2022/02/27 12:31:03;;;;;;;0.30;0.30;;;;;;;;;;5053272;28;20017;-58
2022/02/27 12:33:28;;;;;;;0.30;0.20;;;;;;;;;;5052723;28;20544;-58
2022/02/27 12:35:53;;;;;;;0.38;0.20;;;;;;;;;;5052604;28;20470;-59
2022/02/27 12:38:24;;;;;;;0.20;0.20;;;;;;;;;;5055465;28;20017;-57
2022/02/27 12:40:56;;;;;;;0.40;0.40;;;;;;;;;;5041379;28;20055;-56
2022/02/27 12:43:22;;;;;;;0.57;0.20;;;;;;;;;;5053236;28;20013;-58
2022/02/27 12:45:47;;;;;;;0.30;0.20;;;;;;;;;;5052797;28;20028;-58
2022/02/27 12:48:14;;;;;;;0.28;0.20;;;;;;;;;;5051956;28;20680;-57
2022/02/27 12:50:46;;;;;;;0.30;0.20;;;;;;;;;;5056179;28;20046;-57
2022/02/27 12:53:12;;;;;;;0.43;0.20;;;;;;;;;;5054217;28;20496;-58
2022/02/27 12:55:37;;;;;;;0.40;0.20;;;;;;;;;;5047435;28;20122;-57
2022/02/27 12:58:05;;;;;;;0.40;0.30;;;;;;;;;;5065258;28;20009;-57
2022/02/27 13:00:31;;;;;;;0.50;0.35;;;;;;;;;;5051855;28;20021;-58
2022/02/27 13:02:57;;;;;;;0.47;0.32;;;;;;;;;;5052116;28;20067;-58
2022/02/27 13:05:22;;;;;;;0.60;0.50;;;;;;;;;;5050633;28;20032;-59
2022/02/27 13:07:48;;;;;;;1.90;0.80;;;;;;;;;;5070561;28;20028;-58
2022/02/27 13:10:14;;;;;;;1.48;0.60;;;;;;;;;;5054441;28;20037;-58
2022/02/27 13:12:39;;;;;;;0.63;0.50;;;;;;;;;;5051032;28;20021;-58
2022/02/27 13:15:05;;;;;;;1.33;0.50;;;;;;;;;;5064041;28;20082;-59
2022/02/27 13:17:31;;;;;;;0.65;0.65;;;;;;;;;;5072561;28;20275;-58
2022/02/27 13:19:57;;;;;;;0.70;0.60;;;;;;;;;;5058221;28;20078;-58
2022/02/27 13:22:27;;;;;;;1.02;0.60;;;;;;;;;;5052249;28;20046;-59
2022/02/27 13:24:57;;;;;;;1.15;0.60;;;;;;;;;;5054541;28;20028;-57
2022/02/27 13:27:32;;;;;;;0.50;0.43;;;;;;;;;;5035182;28;20070;-59
2022/02/27 13:29:58;;;;;;;0.57;0.40;;;;;;;;;;5054966;28;20059;-59
2022/02/27 13:32:28;;;;;;;0.57;0.55;;;;;;;;;;5052518;28;20481;-59
2022/02/27 13:34:57;;;;;;;0.93;0.70;;;;;;;;;;5042198;28;20151;-59
2022/02/27 13:37:24;;;;;;;1.23;1.00;;;;;;;;;;5032412;28;20033;-59
2022/02/27 13:39:56;;;;;;;0.60;0.60;;;;;;;;;;5039594;28;20048;-58
2022/02/27 13:42:21;;;;;;;1.52;0.70;;;;;;;;;;5050749;28;20063;-59
2022/02/27 13:44:47;;;;;;;0.60;0.50;;;;;;;;;;5051474;28;20056;-59
2022/02/27 13:47:20;;;;;;;2.85;0.82;;;;;;;;;;5051807;28;20035;-59
2022/02/27 13:49:46;;;;;;;0.40;0.30;;;;;;;;;;5052651;28;20388;-58
2022/02/27 13:52:17;;;;;;;0.50;0.40;;;;;;;;;;5051451;28;20028;-59
2022/02/27 13:54:44;;;;;;;0.20;0.20;;;;;;;;;;5047488;28;20119;-58
2022/02/27 13:57:10;;;;;;;0.47;0.30;;;;;;;;;;5051019;28;20020;-59
2022/02/27 13:59:41;;;;;;;0.22;0.15;;;;;;;;;;5068409;28;20020;-59
2022/02/27 14:02:07;;;;;;;0.20;0.10;;;;;;;;;;5049622;28;20013;-59
2022/02/27 14:04:32;;;;;;;0.30;0.10;;;;;;;;;;5042412;28;20520;-58
2022/02/27 14:06:57;;;;;;;0.22;0.13;;;;;;;;;;5034238;28;20470;-58
2022/02/27 14:09:22;;;;;;;0.40;0.20;;;;;;;;;;5039610;28;20389;-57
2022/02/27 14:11:48;;;;;;;0.50;0.30;;;;;;;;;;5029436;28;20029;-57
2022/02/27 14:14:13;;;;;;;0.30;0.20;;;;;;;;;;5031325;28;20025;-58
2022/02/27 14:16:41;;;;;;;0.30;0.20;;;;;;;;;;5036519;28;20052;-58
2022/02/27 14:19:23;;;;;;;0.47;0.30;;;;;;;;;;5040248;28;20017;-58
2022/02/27 14:21:49;;;;;;;0.30;0.10;;;;;;;;;;5043244;28;20024;-57
2022/02/27 14:24:19;;;;;;;0.10;0.10;;;;;;;;;;5028461;28;20521;-58
2022/02/27 14:26:54;;;;;;;0.40;0.40;;;;;;;;;;5042336;28;20028;-58
2022/02/27 14:29:20;;;;;;;0.25;0.20;;;;;;;;;;5031935;28;20032;-58
2022/02/27 14:31:47;;;;;;;0.10;0.10;;;;;;;;;;5013778;28;20030;-58
2022/02/27 14:34:15;;;;;;;0.25;0.20;;;;;;;;;;5037112;28;20267;-58
2022/02/27 14:36:41;;;;;;;0.40;0.30;;;;;;;;;;5050301;28;20048;-58
2022/02/27 14:39:07;;;;;;;0.17;0.10;;;;;;;;;;5031200;28;20026;-58